sensor_id;sensor_type;location;lat;lon;timestamp;P1;durP1;ratioP1;P2;durP2;ratioP2
67715;SDS011;54508;43.238;25.306;2022-12-29T00:01:30;8.73;;;7.03;;
67715;SDS011;54508;43.238;25.306;2022-12-29T00:03:56;10.13;;;8.05;;
67715;SDS011;54508;43.238;25.306;2022-12-29T00:06:21;11.25;;;7.60;;
67715;SDS011;54508;43.238;25.306;2022-12-29T00:08:47;8.73;;;6.87;;
67715;SDS011;54508;43.238;25.306;2022-12-29T00:11:14;9.47;;;7.03;;
67715;SDS011;54508;43.238;25.306;2022-12-29T00:13:42;9.50;;;7.20;;
67715;SDS011;54508;43.238;25.306;2022-12-29T00:16:26;9.15;;;6.90;;
67715;SDS011;54508;43.238;25.306;2022-12-29T00:18:52;11.15;;;7.28;;
67715;SDS011;54508;43.238;25.306;2022-12-29T00:21:18;7.03;;;6.23;;
67715;SDS011;54508;43.238;25.306;2022-12-29T00:24:03;8.25;;;6.82;;
67715;SDS011;54508;43.238;25.306;2022-12-29T00:27:10;9.85;;;7.00;;
67715;SDS011;54508;43.238;25.306;2022-12-29T00:29:55;9.07;;;6.53;;
67715;SDS011;54508;43.238;25.306;2022-12-29T00:32:39;8.90;;;6.68;;
67715;SDS011;54508;43.238;25.306;2022-12-29T00:35:25;8.63;;;6.60;;
67715;SDS011;54508;43.238;25.306;2022-12-29T00:37:55;10.15;;;7.03;;
67715;SDS011;54508;43.238;25.306;2022-12-29T00:40:40;8.73;;;6.05;;
67715;SDS011;54508;43.238;25.306;2022-12-29T00:43:24;9.63;;;6.40;;
67715;SDS011;54508;43.238;25.306;2022-12-29T00:46:08;8.20;;;6.00;;
67715;SDS011;54508;43.238;25.306;2022-12-29T00:48:34;9.07;;;6.63;;
67715;SDS011;54508;43.238;25.306;2022-12-29T00:51:18;7.93;;;5.53;;
67715;SDS011;54508;43.238;25.306;2022-12-29T00:53:43;8.38;;;6.47;;
67715;SDS011;54508;43.238;25.306;2022-12-29T00:56:08;8.17;;;6.07;;
67715;SDS011;54508;43.238;25.306;2022-12-29T00:58:34;8.53;;;5.93;;
67715;SDS011;54508;43.238;25.306;2022-12-29T01:01:03;8.97;;;6.20;;
67715;SDS011;54508;43.238;25.306;2022-12-29T01:03:30;8.93;;;6.22;;
67715;SDS011;54508;43.238;25.306;2022-12-29T01:05:55;8.50;;;6.00;;
67715;SDS011;54508;43.238;25.306;2022-12-29T01:08:21;8.50;;;6.65;;
67715;SDS011;54508;43.238;25.306;2022-12-29T01:10:46;7.23;;;5.70;;
67715;SDS011;54508;43.238;25.306;2022-12-29T01:13:35;8.50;;;6.43;;
67715;SDS011;54508;43.238;25.306;2022-12-29T01:16:02;7.93;;;6.30;;
67715;SDS011;54508;43.238;25.306;2022-12-29T01:18:27;9.87;;;6.27;;
67715;SDS011;54508;43.238;25.306;2022-12-29T01:20:59;8.32;;;6.25;;
67715;SDS011;54508;43.238;25.306;2022-12-29T01:23:29;8.55;;;6.20;;
67715;SDS011;54508;43.238;25.306;2022-12-29T01:25:55;7.85;;;6.43;;
67715;SDS011;54508;43.238;25.306;2022-12-29T01:28:21;8.20;;;6.38;;
67715;SDS011;54508;43.238;25.306;2022-12-29T01:30:46;8.63;;;6.75;;
67715;SDS011;54508;43.238;25.306;2022-12-29T01:33:12;8.88;;;6.57;;
67715;SDS011;54508;43.238;25.306;2022-12-29T01:35:38;9.60;;;6.37;;
67715;SDS011;54508;43.238;25.306;2022-12-29T01:38:03;8.20;;;6.23;;
67715;SDS011;54508;43.238;25.306;2022-12-29T01:40:28;8.60;;;7.00;;
67715;SDS011;54508;43.238;25.306;2022-12-29T01:42:54;10.30;;;6.25;;
67715;SDS011;54508;43.238;25.306;2022-12-29T01:45:19;8.63;;;6.23;;
67715;SDS011;54508;43.238;25.306;2022-12-29T01:47:52;8.37;;;6.60;;
67715;SDS011;54508;43.238;25.306;2022-12-29T01:50:25;8.18;;;6.63;;
67715;SDS011;54508;43.238;25.306;2022-12-29T01:52:57;10.00;;;7.05;;
67715;SDS011;54508;43.238;25.306;2022-12-29T01:55:34;7.95;;;6.57;;
67715;SDS011;54508;43.238;25.306;2022-12-29T01:58:04;9.20;;;6.57;;
67715;SDS011;54508;43.238;25.306;2022-12-29T02:00:31;7.70;;;6.63;;
67715;SDS011;54508;43.238;25.306;2022-12-29T02:02:56;8.43;;;6.53;;
67715;SDS011;54508;43.238;25.306;2022-12-29T02:08:02;9.95;;;7.00;;
67715;SDS011;54508;43.238;25.306;2022-12-29T02:10:29;8.63;;;6.27;;
67715;SDS011;54508;43.238;25.306;2022-12-29T02:12:56;8.30;;;6.80;;
67715;SDS011;54508;43.238;25.306;2022-12-29T02:18:23;9.32;;;7.00;;
67715;SDS011;54508;43.238;25.306;2022-12-29T02:21:09;10.77;;;7.15;;
67715;SDS011;54508;43.238;25.306;2022-12-29T02:26:49;10.15;;;6.82;;
67715;SDS011;54508;43.238;25.306;2022-12-29T02:32:06;9.77;;;6.55;;
67715;SDS011;54508;43.238;25.306;2022-12-29T02:35:01;8.55;;;6.53;;
67715;SDS011;54508;43.238;25.306;2022-12-29T02:44:26;9.10;;;6.45;;
67715;SDS011;54508;43.238;25.306;2022-12-29T02:49:30;8.45;;;5.93;;
67715;SDS011;54508;43.238;25.306;2022-12-29T02:52:06;8.15;;;6.05;;
67715;SDS011;54508;43.238;25.306;2022-12-29T02:54:33;7.05;;;5.72;;
67715;SDS011;54508;43.238;25.306;2022-12-29T03:00:20;8.15;;;6.20;;
67715;SDS011;54508;43.238;25.306;2022-12-29T03:05:51;7.63;;;5.90;;
67715;SDS011;54508;43.238;25.306;2022-12-29T03:11:13;8.30;;;5.72;;
67715;SDS011;54508;43.238;25.306;2022-12-29T03:20:06;7.57;;;5.88;;
67715;SDS011;54508;43.238;25.306;2022-12-29T03:22:34;8.40;;;5.75;;
67715;SDS011;54508;43.238;25.306;2022-12-29T03:25:10;7.95;;;6.03;;
67715;SDS011;54508;43.238;25.306;2022-12-29T03:27:48;6.57;;;4.78;;
67715;SDS011;54508;43.238;25.306;2022-12-29T03:30:15;7.68;;;5.50;;
67715;SDS011;54508;43.238;25.306;2022-12-29T03:32:45;8.20;;;5.15;;
67715;SDS011;54508;43.238;25.306;2022-12-29T03:35:13;7.20;;;5.23;;
67715;SDS011;54508;43.238;25.306;2022-12-29T03:37:45;7.63;;;5.25;;
67715;SDS011;54508;43.238;25.306;2022-12-29T03:40:15;7.57;;;5.07;;
67715;SDS011;54508;43.238;25.306;2022-12-29T03:42:41;7.72;;;5.28;;
67715;SDS011;54508;43.238;25.306;2022-12-29T03:45:08;7.90;;;5.15;;
67715;SDS011;54508;43.238;25.306;2022-12-29T03:47:34;7.57;;;5.10;;
67715;SDS011;54508;43.238;25.306;2022-12-29T03:50:00;8.15;;;4.93;;
67715;SDS011;54508;43.238;25.306;2022-12-29T03:52:25;7.47;;;5.00;;
67715;SDS011;54508;43.238;25.306;2022-12-29T03:54:51;9.73;;;5.43;;
67715;SDS011;54508;43.238;25.306;2022-12-29T03:57:16;7.43;;;4.93;;
67715;SDS011;54508;43.238;25.306;2022-12-29T03:59:42;6.40;;;4.43;;
67715;SDS011;54508;43.238;25.306;2022-12-29T04:02:07;5.97;;;4.70;;
67715;SDS011;54508;43.238;25.306;2022-12-29T04:04:33;6.67;;;5.10;;
67715;SDS011;54508;43.238;25.306;2022-12-29T04:06:58;7.43;;;5.50;;
67715;SDS011;54508;43.238;25.306;2022-12-29T04:09:24;6.63;;;5.20;;
67715;SDS011;54508;43.238;25.306;2022-12-29T04:11:49;7.50;;;5.37;;
67715;SDS011;54508;43.238;25.306;2022-12-29T04:14:15;6.63;;;4.83;;
67715;SDS011;54508;43.238;25.306;2022-12-29T04:16:40;7.53;;;5.13;;
67715;SDS011;54508;43.238;25.306;2022-12-29T04:19:06;7.30;;;5.23;;
67715;SDS011;54508;43.238;25.306;2022-12-29T04:21:32;6.75;;;4.95;;
67715;SDS011;54508;43.238;25.306;2022-12-29T04:23:57;6.03;;;4.63;;
67715;SDS011;54508;43.238;25.306;2022-12-29T04:26:23;7.47;;;4.93;;
67715;SDS011;54508;43.238;25.306;2022-12-29T04:28:48;6.60;;;5.30;;
67715;SDS011;54508;43.238;25.306;2022-12-29T04:31:14;6.60;;;4.77;;
67715;SDS011;54508;43.238;25.306;2022-12-29T04:33:39;7.70;;;5.30;;
67715;SDS011;54508;43.238;25.306;2022-12-29T04:36:05;6.43;;;4.97;;
67715;SDS011;54508;43.238;25.306;2022-12-29T04:38:31;7.88;;;5.38;;
67715;SDS011;54508;43.238;25.306;2022-12-29T04:40:58;7.87;;;5.23;;
67715;SDS011;54508;43.238;25.306;2022-12-29T04:43:25;6.82;;;5.47;;
67715;SDS011;54508;43.238;25.306;2022-12-29T04:45:50;7.53;;;5.90;;
67715;SDS011;54508;43.238;25.306;2022-12-29T04:48:16;6.88;;;5.22;;
67715;SDS011;54508;43.238;25.306;2022-12-29T04:50:42;6.87;;;5.10;;
67715;SDS011;54508;43.238;25.306;2022-12-29T04:53:07;7.75;;;5.38;;
67715;SDS011;54508;43.238;25.306;2022-12-29T04:55:33;7.03;;;5.33;;
67715;SDS011;54508;43.238;25.306;2022-12-29T04:57:59;7.77;;;5.87;;
67715;SDS011;54508;43.238;25.306;2022-12-29T05:00:24;7.75;;;5.47;;
67715;SDS011;54508;43.238;25.306;2022-12-29T05:02:50;7.50;;;5.70;;
67715;SDS011;54508;43.238;25.306;2022-12-29T05:05:15;7.57;;;5.83;;
67715;SDS011;54508;43.238;25.306;2022-12-29T05:07:41;8.55;;;6.00;;
67715;SDS011;54508;43.238;25.306;2022-12-29T05:10:07;7.73;;;5.80;;
67715;SDS011;54508;43.238;25.306;2022-12-29T05:12:33;7.78;;;5.65;;
67715;SDS011;54508;43.238;25.306;2022-12-29T05:14:59;7.47;;;5.60;;
67715;SDS011;54508;43.238;25.306;2022-12-29T05:17:25;6.70;;;5.73;;
67715;SDS011;54508;43.238;25.306;2022-12-29T05:19:51;8.18;;;6.00;;
67715;SDS011;54508;43.238;25.306;2022-12-29T05:22:16;7.43;;;5.80;;
67715;SDS011;54508;43.238;25.306;2022-12-29T05:24:42;7.43;;;6.07;;
67715;SDS011;54508;43.238;25.306;2022-12-29T05:27:07;7.88;;;6.30;;
67715;SDS011;54508;43.238;25.306;2022-12-29T05:29:33;9.23;;;5.67;;
67715;SDS011;54508;43.238;25.306;2022-12-29T05:31:58;7.23;;;5.67;;
67715;SDS011;54508;43.238;25.306;2022-12-29T05:34:24;8.17;;;6.07;;
67715;SDS011;54508;43.238;25.306;2022-12-29T05:36:49;6.95;;;5.93;;
67715;SDS011;54508;43.238;25.306;2022-12-29T05:39:15;9.10;;;6.20;;
67715;SDS011;54508;43.238;25.306;2022-12-29T05:41:40;8.33;;;6.17;;
67715;SDS011;54508;43.238;25.306;2022-12-29T05:44:06;7.07;;;6.20;;
67715;SDS011;54508;43.238;25.306;2022-12-29T05:46:31;9.00;;;5.87;;
67715;SDS011;54508;43.238;25.306;2022-12-29T05:48:57;7.77;;;6.30;;
67715;SDS011;54508;43.238;25.306;2022-12-29T05:51:22;8.20;;;6.37;;
67715;SDS011;54508;43.238;25.306;2022-12-29T05:53:48;7.65;;;6.03;;
67715;SDS011;54508;43.238;25.306;2022-12-29T05:56:13;8.57;;;6.37;;
67715;SDS011;54508;43.238;25.306;2022-12-29T05:58:39;7.73;;;6.00;;
67715;SDS011;54508;43.238;25.306;2022-12-29T06:01:04;7.27;;;6.03;;
67715;SDS011;54508;43.238;25.306;2022-12-29T06:03:30;7.85;;;6.25;;
67715;SDS011;54508;43.238;25.306;2022-12-29T06:05:55;8.13;;;6.13;;
67715;SDS011;54508;43.238;25.306;2022-12-29T06:08:21;8.10;;;6.63;;
67715;SDS011;54508;43.238;25.306;2022-12-29T06:10:46;6.82;;;5.72;;
67715;SDS011;54508;43.238;25.306;2022-12-29T06:13:12;9.50;;;7.73;;
67715;SDS011;54508;43.238;25.306;2022-12-29T06:15:37;15.63;;;10.93;;
67715;SDS011;54508;43.238;25.306;2022-12-29T06:18:03;17.17;;;10.50;;
67715;SDS011;54508;43.238;25.306;2022-12-29T06:20:28;23.83;;;11.25;;
67715;SDS011;54508;43.238;25.306;2022-12-29T06:22:54;18.97;;;13.93;;
67715;SDS011;54508;43.238;25.306;2022-12-29T06:25:19;17.90;;;13.00;;
67715;SDS011;54508;43.238;25.306;2022-12-29T06:27:44;24.85;;;15.05;;
67715;SDS011;54508;43.238;25.306;2022-12-29T06:30:10;26.42;;;17.45;;
67715;SDS011;54508;43.238;25.306;2022-12-29T06:32:36;25.90;;;19.27;;
67715;SDS011;54508;43.238;25.306;2022-12-29T06:35:02;23.93;;;18.07;;
67715;SDS011;54508;43.238;25.306;2022-12-29T06:37:29;27.88;;;19.45;;
67715;SDS011;54508;43.238;25.306;2022-12-29T06:39:55;27.77;;;18.43;;
67715;SDS011;54508;43.238;25.306;2022-12-29T06:42:20;23.92;;;19.15;;
67715;SDS011;54508;43.238;25.306;2022-12-29T06:44:46;28.67;;;18.43;;
67715;SDS011;54508;43.238;25.306;2022-12-29T06:47:11;27.93;;;17.13;;
67715;SDS011;54508;43.238;25.306;2022-12-29T06:49:37;25.65;;;17.25;;
67715;SDS011;54508;43.238;25.306;2022-12-29T06:52:02;20.37;;;15.13;;
67715;SDS011;54508;43.238;25.306;2022-12-29T06:54:29;19.70;;;15.38;;
67715;SDS011;54508;43.238;25.306;2022-12-29T06:56:55;31.50;;;16.23;;
67715;SDS011;54508;43.238;25.306;2022-12-29T06:59:21;27.83;;;18.17;;
67715;SDS011;54508;43.238;25.306;2022-12-29T07:01:46;25.03;;;16.67;;
67715;SDS011;54508;43.238;25.306;2022-12-29T07:04:11;20.90;;;15.53;;
67715;SDS011;54508;43.238;25.306;2022-12-29T07:06:37;26.17;;;16.10;;
67715;SDS011;54508;43.238;25.306;2022-12-29T07:09:03;23.30;;;15.33;;
67715;SDS011;54508;43.238;25.306;2022-12-29T07:11:29;30.35;;;22.05;;
67715;SDS011;54508;43.238;25.306;2022-12-29T07:13:54;41.43;;;22.43;;
67715;SDS011;54508;43.238;25.306;2022-12-29T07:16:21;41.00;;;21.65;;
67715;SDS011;54508;43.238;25.306;2022-12-29T07:18:46;24.37;;;18.00;;
67715;SDS011;54508;43.238;25.306;2022-12-29T07:21:12;38.43;;;20.60;;
67715;SDS011;54508;43.238;25.306;2022-12-29T07:23:37;36.03;;;18.85;;
67715;SDS011;54508;43.238;25.306;2022-12-29T07:26:04;32.83;;;18.20;;
67715;SDS011;54508;43.238;25.306;2022-12-29T07:28:31;28.45;;;17.88;;
67715;SDS011;54508;43.238;25.306;2022-12-29T07:30:58;28.20;;;16.37;;
67715;SDS011;54508;43.238;25.306;2022-12-29T07:33:24;32.22;;;17.00;;
67715;SDS011;54508;43.238;25.306;2022-12-29T07:35:49;24.75;;;15.25;;
67715;SDS011;54508;43.238;25.306;2022-12-29T07:38:15;22.73;;;14.80;;
67715;SDS011;54508;43.238;25.306;2022-12-29T07:40:41;21.85;;;15.23;;
67715;SDS011;54508;43.238;25.306;2022-12-29T07:43:07;21.65;;;14.75;;
67715;SDS011;54508;43.238;25.306;2022-12-29T07:45:32;21.17;;;14.83;;
67715;SDS011;54508;43.238;25.306;2022-12-29T07:47:58;22.03;;;15.33;;
67715;SDS011;54508;43.238;25.306;2022-12-29T07:50:23;19.17;;;13.63;;
67715;SDS011;54508;43.238;25.306;2022-12-29T07:52:49;18.17;;;12.52;;
67715;SDS011;54508;43.238;25.306;2022-12-29T07:55:14;25.40;;;15.20;;
67715;SDS011;54508;43.238;25.306;2022-12-29T07:57:40;24.23;;;13.38;;
67715;SDS011;54508;43.238;25.306;2022-12-29T08:00:06;29.97;;;14.10;;
67715;SDS011;54508;43.238;25.306;2022-12-29T08:02:32;37.97;;;24.52;;
67715;SDS011;54508;43.238;25.306;2022-12-29T08:04:58;34.80;;;20.73;;
67715;SDS011;54508;43.238;25.306;2022-12-29T08:07:23;29.87;;;17.77;;
67715;SDS011;54508;43.238;25.306;2022-12-29T08:09:49;25.60;;;18.90;;
67715;SDS011;54508;43.238;25.306;2022-12-29T08:12:14;27.73;;;18.98;;
67715;SDS011;54508;43.238;25.306;2022-12-29T08:14:40;27.63;;;19.47;;
67715;SDS011;54508;43.238;25.306;2022-12-29T08:17:05;32.13;;;20.73;;
67715;SDS011;54508;43.238;25.306;2022-12-29T08:19:31;35.28;;;20.50;;
67715;SDS011;54508;43.238;25.306;2022-12-29T08:21:56;51.73;;;21.77;;
67715;SDS011;54508;43.238;25.306;2022-12-29T08:24:22;42.10;;;19.27;;
67715;SDS011;54508;43.238;25.306;2022-12-29T08:26:47;37.42;;;16.83;;
67715;SDS011;54508;43.238;25.306;2022-12-29T08:29:13;32.17;;;15.80;;
67715;SDS011;54508;43.238;25.306;2022-12-29T08:31:38;27.53;;;15.60;;
67715;SDS011;54508;43.238;25.306;2022-12-29T08:34:04;29.33;;;14.73;;
67715;SDS011;54508;43.238;25.306;2022-12-29T08:36:29;31.45;;;15.63;;
67715;SDS011;54508;43.238;25.306;2022-12-29T08:38:55;26.80;;;14.32;;
67715;SDS011;54508;43.238;25.306;2022-12-29T08:41:21;31.73;;;13.60;;
67715;SDS011;54508;43.238;25.306;2022-12-29T08:43:47;30.05;;;14.90;;
67715;SDS011;54508;43.238;25.306;2022-12-29T08:46:13;28.63;;;13.45;;
67715;SDS011;54508;43.238;25.306;2022-12-29T08:48:39;25.85;;;14.13;;
67715;SDS011;54508;43.238;25.306;2022-12-29T08:51:04;27.90;;;14.10;;
67715;SDS011;54508;43.238;25.306;2022-12-29T08:53:30;16.73;;;12.32;;
67715;SDS011;54508;43.238;25.306;2022-12-29T08:55:56;31.83;;;12.43;;
67715;SDS011;54508;43.238;25.306;2022-12-29T08:58:23;33.28;;;11.88;;
67715;SDS011;54508;43.238;25.306;2022-12-29T09:00:51;17.35;;;11.27;;
67715;SDS011;54508;43.238;25.306;2022-12-29T09:03:20;21.42;;;11.48;;
67715;SDS011;54508;43.238;25.306;2022-12-29T09:05:50;24.40;;;11.45;;
67715;SDS011;54508;43.238;25.306;2022-12-29T09:08:16;23.33;;;12.68;;
67715;SDS011;54508;43.238;25.306;2022-12-29T09:10:42;21.33;;;12.10;;
67715;SDS011;54508;43.238;25.306;2022-12-29T09:13:08;23.10;;;11.52;;
67715;SDS011;54508;43.238;25.306;2022-12-29T09:15:34;27.00;;;11.13;;
67715;SDS011;54508;43.238;25.306;2022-12-29T09:18:00;24.03;;;10.10;;
67715;SDS011;54508;43.238;25.306;2022-12-29T09:20:25;17.93;;;10.17;;
67715;SDS011;54508;43.238;25.306;2022-12-29T09:22:51;15.15;;;9.80;;
67715;SDS011;54508;43.238;25.306;2022-12-29T09:25:16;16.13;;;9.07;;
67715;SDS011;54508;43.238;25.306;2022-12-29T09:27:42;14.53;;;8.37;;
67715;SDS011;54508;43.238;25.306;2022-12-29T09:30:09;18.45;;;9.05;;
67715;SDS011;54508;43.238;25.306;2022-12-29T09:32:35;15.02;;;8.60;;
67715;SDS011;54508;43.238;25.306;2022-12-29T09:35:01;15.18;;;8.65;;
67715;SDS011;54508;43.238;25.306;2022-12-29T09:37:26;14.83;;;8.70;;
67715;SDS011;54508;43.238;25.306;2022-12-29T09:39:52;15.10;;;8.68;;
67715;SDS011;54508;43.238;25.306;2022-12-29T09:45:20;17.60;;;8.57;;
67715;SDS011;54508;43.238;25.306;2022-12-29T09:47:52;17.55;;;9.73;;
67715;SDS011;54508;43.238;25.306;2022-12-29T09:52:55;14.23;;;8.52;;
67715;SDS011;54508;43.238;25.306;2022-12-29T09:55:30;12.47;;;8.13;;
67715;SDS011;54508;43.238;25.306;2022-12-29T09:58:12;18.77;;;8.50;;
67715;SDS011;54508;43.238;25.306;2022-12-29T10:00:52;12.63;;;8.65;;
67715;SDS011;54508;43.238;25.306;2022-12-29T10:04:11;15.45;;;8.38;;
67715;SDS011;54508;43.238;25.306;2022-12-29T10:08:51;18.17;;;8.40;;
67715;SDS011;54508;43.238;25.306;2022-12-29T10:25:22;15.40;;;7.40;;
67715;SDS011;54508;43.238;25.306;2022-12-29T10:27:50;11.05;;;7.53;;
67715;SDS011;54508;43.238;25.306;2022-12-29T10:30:16;15.45;;;7.47;;
67715;SDS011;54508;43.238;25.306;2022-12-29T10:35:16;12.27;;;7.03;;
67715;SDS011;54508;43.238;25.306;2022-12-29T10:37:46;10.95;;;6.80;;
67715;SDS011;54508;43.238;25.306;2022-12-29T10:40:43;11.40;;;7.00;;
67715;SDS011;54508;43.238;25.306;2022-12-29T10:43:25;11.80;;;6.75;;
67715;SDS011;54508;43.238;25.306;2022-12-29T10:45:54;10.63;;;6.97;;
67715;SDS011;54508;43.238;25.306;2022-12-29T10:48:24;11.67;;;6.90;;
67715;SDS011;54508;43.238;25.306;2022-12-29T10:50:52;15.38;;;6.82;;
67715;SDS011;54508;43.238;25.306;2022-12-29T10:53:23;11.88;;;6.72;;
67715;SDS011;54508;43.238;25.306;2022-12-29T10:55:51;12.57;;;6.63;;
67715;SDS011;54508;43.238;25.306;2022-12-29T10:58:16;12.27;;;6.57;;
67715;SDS011;54508;43.238;25.306;2022-12-29T11:00:42;12.02;;;6.72;;
67715;SDS011;54508;43.238;25.306;2022-12-29T11:08:30;15.10;;;7.10;;
67715;SDS011;54508;43.238;25.306;2022-12-29T11:11:04;11.27;;;7.40;;
67715;SDS011;54508;43.238;25.306;2022-12-29T11:13:32;14.27;;;7.45;;
67715;SDS011;54508;43.238;25.306;2022-12-29T11:16:11;11.05;;;6.88;;
67715;SDS011;54508;43.238;25.306;2022-12-29T11:18:37;9.80;;;6.80;;
67715;SDS011;54508;43.238;25.306;2022-12-29T11:24:23;9.15;;;6.70;;
67715;SDS011;54508;43.238;25.306;2022-12-29T11:26:51;8.95;;;6.45;;
67715;SDS011;54508;43.238;25.306;2022-12-29T11:29:28;9.63;;;6.53;;
67715;SDS011;54508;43.238;25.306;2022-12-29T11:32:10;9.43;;;6.27;;
67715;SDS011;54508;43.238;25.306;2022-12-29T11:34:37;9.55;;;6.20;;
67715;SDS011;54508;43.238;25.306;2022-12-29T11:37:16;19.60;;;7.13;;
67715;SDS011;54508;43.238;25.306;2022-12-29T11:42:13;8.57;;;6.13;;
67715;SDS011;54508;43.238;25.306;2022-12-29T11:44:44;10.95;;;6.20;;
67715;SDS011;54508;43.238;25.306;2022-12-29T11:47:30;7.93;;;5.95;;
67715;SDS011;54508;43.238;25.306;2022-12-29T11:49:58;8.60;;;5.43;;
67715;SDS011;54508;43.238;25.306;2022-12-29T11:52:26;9.90;;;5.95;;
67715;SDS011;54508;43.238;25.306;2022-12-29T11:55:00;9.23;;;5.85;;
67715;SDS011;54508;43.238;25.306;2022-12-29T11:57:28;9.27;;;6.10;;
67715;SDS011;54508;43.238;25.306;2022-12-29T11:59:54;12.13;;;6.73;;
67715;SDS011;54508;43.238;25.306;2022-12-29T12:05:08;17.20;;;5.90;;
67715;SDS011;54508;43.238;25.306;2022-12-29T12:07:44;10.05;;;6.47;;
67715;SDS011;54508;43.238;25.306;2022-12-29T12:10:16;15.38;;;6.45;;
67715;SDS011;54508;43.238;25.306;2022-12-29T12:15:17;16.05;;;6.30;;
67715;SDS011;54508;43.238;25.306;2022-12-29T12:31:06;7.53;;;5.35;;
67715;SDS011;54508;43.238;25.306;2022-12-29T12:33:41;8.98;;;5.65;;
67715;SDS011;54508;43.238;25.306;2022-12-29T13:07:23;8.43;;;4.30;;
67715;SDS011;54508;43.238;25.306;2022-12-29T13:10:13;14.23;;;4.70;;
67715;SDS011;54508;43.238;25.306;2022-12-29T13:18:37;7.47;;;4.72;;
67715;SDS011;54508;43.238;25.306;2022-12-29T13:26:40;8.13;;;4.97;;
67715;SDS011;54508;43.238;25.306;2022-12-29T13:29:17;12.60;;;5.10;;
67715;SDS011;54508;43.238;25.306;2022-12-29T13:37:01;9.77;;;4.40;;
67715;SDS011;54508;43.238;25.306;2022-12-29T13:39:38;11.43;;;4.65;;
67715;SDS011;54508;43.238;25.306;2022-12-29T13:42:07;11.85;;;5.22;;
67715;SDS011;54508;43.238;25.306;2022-12-29T13:50:03;13.75;;;4.75;;
67715;SDS011;54508;43.238;25.306;2022-12-29T13:55:44;11.67;;;5.03;;
67715;SDS011;54508;43.238;25.306;2022-12-29T14:03:49;12.50;;;5.50;;
67715;SDS011;54508;43.238;25.306;2022-12-29T14:06:26;9.73;;;5.40;;
67715;SDS011;54508;43.238;25.306;2022-12-29T14:08:54;10.17;;;5.77;;
67715;SDS011;54508;43.238;25.306;2022-12-29T14:11:22;15.50;;;6.32;;
67715;SDS011;54508;43.238;25.306;2022-12-29T14:13:49;10.50;;;5.65;;
67715;SDS011;54508;43.238;25.306;2022-12-29T14:16:26;10.45;;;5.22;;
67715;SDS011;54508;43.238;25.306;2022-12-29T14:18:52;8.95;;;5.22;;
67715;SDS011;54508;43.238;25.306;2022-12-29T14:21:22;11.73;;;6.07;;
67715;SDS011;54508;43.238;25.306;2022-12-29T14:23:53;12.48;;;5.65;;
67715;SDS011;54508;43.238;25.306;2022-12-29T14:28:56;9.33;;;5.47;;
67715;SDS011;54508;43.238;25.306;2022-12-29T14:36:35;14.07;;;8.68;;
67715;SDS011;54508;43.238;25.306;2022-12-29T14:39:03;15.63;;;7.90;;
67715;SDS011;54508;43.238;25.306;2022-12-29T14:41:33;19.23;;;7.03;;
67715;SDS011;54508;43.238;25.306;2022-12-29T14:44:21;10.52;;;7.22;;
67715;SDS011;54508;43.238;25.306;2022-12-29T14:46:48;16.33;;;8.30;;
67715;SDS011;54508;43.238;25.306;2022-12-29T14:49:21;15.55;;;8.05;;
67715;SDS011;54508;43.238;25.306;2022-12-29T14:52:04;12.40;;;7.40;;
67715;SDS011;54508;43.238;25.306;2022-12-29T14:57:07;13.60;;;7.63;;
67715;SDS011;54508;43.238;25.306;2022-12-29T14:59:38;11.45;;;7.97;;
67715;SDS011;54508;43.238;25.306;2022-12-29T15:02:05;27.93;;;13.83;;
67715;SDS011;54508;43.238;25.306;2022-12-29T15:04:41;21.17;;;12.73;;
67715;SDS011;54508;43.238;25.306;2022-12-29T15:07:08;45.15;;;25.17;;
67715;SDS011;54508;43.238;25.306;2022-12-29T15:12:22;50.55;;;28.02;;
67715;SDS011;54508;43.238;25.306;2022-12-29T15:15:16;55.08;;;36.40;;
67715;SDS011;54508;43.238;25.306;2022-12-29T15:17:42;58.58;;;32.45;;
67715;SDS011;54508;43.238;25.306;2022-12-29T15:20:16;40.70;;;26.57;;
67715;SDS011;54508;43.238;25.306;2022-12-29T15:22:56;33.80;;;23.33;;
67715;SDS011;54508;43.238;25.306;2022-12-29T15:25:24;43.15;;;25.70;;
67715;SDS011;54508;43.238;25.306;2022-12-29T15:28:00;28.67;;;22.48;;
67715;SDS011;54508;43.238;25.306;2022-12-29T15:30:27;27.00;;;20.90;;
67715;SDS011;54508;43.238;25.306;2022-12-29T15:32:53;41.15;;;26.45;;
67715;SDS011;54508;43.238;25.306;2022-12-29T15:37:49;40.55;;;26.40;;
67715;SDS011;54508;43.238;25.306;2022-12-29T15:40:25;31.43;;;22.03;;
67715;SDS011;54508;43.238;25.306;2022-12-29T15:45:18;31.63;;;22.87;;
67715;SDS011;54508;43.238;25.306;2022-12-29T15:47:44;31.23;;;23.30;;
67715;SDS011;54508;43.238;25.306;2022-12-29T15:52:46;30.77;;;23.65;;
67715;SDS011;54508;43.238;25.306;2022-12-29T15:55:21;34.05;;;23.48;;
67715;SDS011;54508;43.238;25.306;2022-12-29T15:57:58;32.60;;;23.65;;
67715;SDS011;54508;43.238;25.306;2022-12-29T16:00:26;34.20;;;23.67;;
67715;SDS011;54508;43.238;25.306;2022-12-29T16:03:00;32.58;;;23.50;;
67715;SDS011;54508;43.238;25.306;2022-12-29T16:05:34;33.28;;;22.85;;
67715;SDS011;54508;43.238;25.306;2022-12-29T16:08:01;34.38;;;23.50;;
67715;SDS011;54508;43.238;25.306;2022-12-29T16:10:30;42.38;;;25.10;;
67715;SDS011;54508;43.238;25.306;2022-12-29T16:13:03;32.63;;;24.17;;
67715;SDS011;54508;43.238;25.306;2022-12-29T16:15:55;37.30;;;24.63;;
67715;SDS011;54508;43.238;25.306;2022-12-29T16:18:25;33.28;;;22.35;;
67715;SDS011;54508;43.238;25.306;2022-12-29T16:20:53;32.72;;;22.20;;
67715;SDS011;54508;43.238;25.306;2022-12-29T16:23:24;37.50;;;23.27;;
67715;SDS011;54508;43.238;25.306;2022-12-29T16:25:51;33.80;;;21.33;;
67715;SDS011;54508;43.238;25.306;2022-12-29T16:29:01;33.42;;;21.13;;
67715;SDS011;54508;43.238;25.306;2022-12-29T16:31:22;29.85;;;20.75;;
67715;SDS011;54508;43.238;25.306;2022-12-29T16:33:55;29.08;;;20.33;;
67715;SDS011;54508;43.238;25.306;2022-12-29T16:36:24;25.77;;;18.23;;
67715;SDS011;54508;43.238;25.306;2022-12-29T16:39:02;27.10;;;19.43;;
67715;SDS011;54508;43.238;25.306;2022-12-29T16:41:51;32.75;;;20.98;;
67715;SDS011;54508;43.238;25.306;2022-12-29T16:46:56;23.20;;;18.08;;
67715;SDS011;54508;43.238;25.306;2022-12-29T16:49:26;25.40;;;18.17;;
67715;SDS011;54508;43.238;25.306;2022-12-29T16:51:52;25.00;;;17.27;;
67715;SDS011;54508;43.238;25.306;2022-12-29T16:54:21;24.30;;;17.80;;
67715;SDS011;54508;43.238;25.306;2022-12-29T16:56:48;24.10;;;17.15;;
67715;SDS011;54508;43.238;25.306;2022-12-29T17:01:50;23.70;;;17.05;;
67715;SDS011;54508;43.238;25.306;2022-12-29T17:04:15;24.33;;;16.43;;
67715;SDS011;54508;43.238;25.306;2022-12-29T17:06:41;20.90;;;16.53;;
67715;SDS011;54508;43.238;25.306;2022-12-29T17:09:20;25.55;;;17.02;;
67715;SDS011;54508;43.238;25.306;2022-12-29T17:11:47;22.35;;;17.40;;
67715;SDS011;54508;43.238;25.306;2022-12-29T17:14:30;22.55;;;16.40;;
67715;SDS011;54508;43.238;25.306;2022-12-29T17:17:19;22.92;;;17.23;;
67715;SDS011;54508;43.238;25.306;2022-12-29T17:19:51;24.45;;;17.40;;
67715;SDS011;54508;43.238;25.306;2022-12-29T17:22:19;23.52;;;17.60;;
67715;SDS011;54508;43.238;25.306;2022-12-29T17:24:50;22.42;;;17.23;;
67715;SDS011;54508;43.238;25.306;2022-12-29T17:29:48;23.45;;;18.10;;
67715;SDS011;54508;43.238;25.306;2022-12-29T17:32:14;25.02;;;17.98;;
67715;SDS011;54508;43.238;25.306;2022-12-29T17:34:40;24.07;;;17.53;;